sensor_id;sensor_type;location;lat;lon;timestamp;temperature;humidity
19847;DHT22;10084;50.518;8.588;2023-01-10T00:01:39;6.10;97.70
19847;DHT22;10084;50.518;8.588;2023-01-10T00:04:04;6.20;98.10
19847;DHT22;10084;50.518;8.588;2023-01-10T00:06:30;6.20;98.00
19847;DHT22;10084;50.518;8.588;2023-01-10T00:08:56;6.20;98.00
19847;DHT22;10084;50.518;8.588;2023-01-10T00:11:22;6.30;98.00
19847;DHT22;10084;50.518;8.588;2023-01-10T00:14:07;6.40;98.00
19847;DHT22;10084;50.518;8.588;2023-01-10T00:16:32;6.40;98.00
19847;DHT22;10084;50.518;8.588;2023-01-10T00:18:58;6.40;98.00
19847;DHT22;10084;50.518;8.588;2023-01-10T00:21:24;6.40;98.00
19847;DHT22;10084;50.518;8.588;2023-01-10T00:23:49;6.50;98.00
19847;DHT22;10084;50.518;8.588;2023-01-10T00:26:15;6.50;98.10
19847;DHT22;10084;50.518;8.588;2023-01-10T00:28:41;6.60;98.10
19847;DHT22;10084;50.518;8.588;2023-01-10T00:31:07;6.60;98.10
19847;DHT22;10084;50.518;8.588;2023-01-10T00:33:35;6.70;98.10
19847;DHT22;10084;50.518;8.588;2023-01-10T00:36:03;6.80;98.10
19847;DHT22;10084;50.518;8.588;2023-01-10T00:38:30;6.80;98.10
19847;DHT22;10084;50.518;8.588;2023-01-10T00:40:58;6.80;98.00
19847;DHT22;10084;50.518;8.588;2023-01-10T00:43:24;6.90;98.00
19847;DHT22;10084;50.518;8.588;2023-01-10T00:46:08;6.90;98.00
19847;DHT22;10084;50.518;8.588;2023-01-10T00:48:34;6.90;98.00
19847;DHT22;10084;50.518;8.588;2023-01-10T00:51:00;6.90;98.00
19847;DHT22;10084;50.518;8.588;2023-01-10T00:53:26;6.90;98.00
19847;DHT22;10084;50.518;8.588;2023-01-10T00:55:53;6.90;98.00
19847;DHT22;10084;50.518;8.588;2023-01-10T00:58:20;6.90;97.90
19847;DHT22;10084;50.518;8.588;2023-01-10T01:00:46;6.90;98.10
19847;DHT22;10084;50.518;8.588;2023-01-10T01:03:15;6.90;98.00
19847;DHT22;10084;50.518;8.588;2023-01-10T01:05:43;6.90;98.00
19847;DHT22;10084;50.518;8.588;2023-01-10T01:08:10;6.90;98.10
19847;DHT22;10084;50.518;8.588;2023-01-10T01:10:36;6.90;98.00
19847;DHT22;10084;50.518;8.588;2023-01-10T01:13:14;6.90;98.10
19847;DHT22;10084;50.518;8.588;2023-01-10T01:15:40;6.90;98.10
19847;DHT22;10084;50.518;8.588;2023-01-10T01:18:06;6.90;98.20
19847;DHT22;10084;50.518;8.588;2023-01-10T01:20:32;6.90;98.10
19847;DHT22;10084;50.518;8.588;2023-01-10T01:22:58;6.90;98.10
19847;DHT22;10084;50.518;8.588;2023-01-10T01:25:25;6.80;98.10
19847;DHT22;10084;50.518;8.588;2023-01-10T01:27:51;6.70;98.10
19847;DHT22;10084;50.518;8.588;2023-01-10T01:30:16;6.70;98.10
19847;DHT22;10084;50.518;8.588;2023-01-10T01:32:42;6.60;98.10
19847;DHT22;10084;50.518;8.588;2023-01-10T01:35:13;6.60;98.20
19847;DHT22;10084;50.518;8.588;2023-01-10T01:37:39;6.50;98.20
19847;DHT22;10084;50.518;8.588;2023-01-10T01:40:06;6.40;98.20
19847;DHT22;10084;50.518;8.588;2023-01-10T01:42:33;6.40;98.20
19847;DHT22;10084;50.518;8.588;2023-01-10T01:47:57;6.40;98.50
19847;DHT22;10084;50.518;8.588;2023-01-10T01:53:00;6.40;98.70
19847;DHT22;10084;50.518;8.588;2023-01-10T01:55:29;6.40;98.70
19847;DHT22;10084;50.518;8.588;2023-01-10T01:57:57;6.50;98.60
19847;DHT22;10084;50.518;8.588;2023-01-10T02:00:24;6.50;98.60
19847;DHT22;10084;50.518;8.588;2023-01-10T02:02:53;6.50;98.50
19847;DHT22;10084;50.518;8.588;2023-01-10T02:05:21;6.50;98.40
19847;DHT22;10084;50.518;8.588;2023-01-10T02:07:51;6.40;98.40
19847;DHT22;10084;50.518;8.588;2023-01-10T02:10:36;6.40;98.50
19847;DHT22;10084;50.518;8.588;2023-01-10T02:13:06;6.40;98.60
19847;DHT22;10084;50.518;8.588;2023-01-10T02:15:32;6.40;98.60
19847;DHT22;10084;50.518;8.588;2023-01-10T02:17:59;6.30;98.50
19847;DHT22;10084;50.518;8.588;2023-01-10T02:20:27;6.30;98.50
19847;DHT22;10084;50.518;8.588;2023-01-10T02:25:58;6.30;98.70
19847;DHT22;10084;50.518;8.588;2023-01-10T02:28:53;6.30;98.80
19847;DHT22;10084;50.518;8.588;2023-01-10T02:31:51;6.30;98.90
19847;DHT22;10084;50.518;8.588;2023-01-10T02:34:47;6.40;99.00
19847;DHT22;10084;50.518;8.588;2023-01-10T02:40:06;6.50;99.10
19847;DHT22;10084;50.518;8.588;2023-01-10T02:42:42;6.60;99.20
19847;DHT22;10084;50.518;8.588;2023-01-10T02:45:35;6.60;99.10
19847;DHT22;10084;50.518;8.588;2023-01-10T02:48:02;6.60;99.20
19847;DHT22;10084;50.518;8.588;2023-01-10T02:53:05;6.60;99.10
19847;DHT22;10084;50.518;8.588;2023-01-10T03:06:53;6.20;99.10
19847;DHT22;10084;50.518;8.588;2023-01-10T03:12:22;6.10;99.20
19847;DHT22;10084;50.518;8.588;2023-01-10T03:14:50;6.00;99.20
19847;DHT22;10084;50.518;8.588;2023-01-10T03:17:18;5.90;99.20
19847;DHT22;10084;50.518;8.588;2023-01-10T03:19:50;5.90;99.20
19847;DHT22;10084;50.518;8.588;2023-01-10T03:22:17;5.80;99.30
19847;DHT22;10084;50.518;8.588;2023-01-10T03:24:51;5.80;99.30
19847;DHT22;10084;50.518;8.588;2023-01-10T03:30:22;5.70;99.40
19847;DHT22;10084;50.518;8.588;2023-01-10T03:32:51;5.70;99.50
19847;DHT22;10084;50.518;8.588;2023-01-10T03:35:19;5.70;99.60
19847;DHT22;10084;50.518;8.588;2023-01-10T03:37:53;5.70;99.60
19847;DHT22;10084;50.518;8.588;2023-01-10T03:40:31;5.70;99.60
19847;DHT22;10084;50.518;8.588;2023-01-10T03:45:59;5.70;99.60
19847;DHT22;10084;50.518;8.588;2023-01-10T03:48:34;5.70;99.60
19847;DHT22;10084;50.518;8.588;2023-01-10T03:51:03;5.70;99.70
19847;DHT22;10084;50.518;8.588;2023-01-10T03:53:31;5.70;99.70
19847;DHT22;10084;50.518;8.588;2023-01-10T03:55:57;5.80;99.80
19847;DHT22;10084;50.518;8.588;2023-01-10T03:58:24;5.80;99.80
19847;DHT22;10084;50.518;8.588;2023-01-10T04:00:50;5.80;99.90
19847;DHT22;10084;50.518;8.588;2023-01-10T04:03:16;5.90;99.90
19847;DHT22;10084;50.518;8.588;2023-01-10T04:05:42;5.90;99.90
19847;DHT22;10084;50.518;8.588;2023-01-10T04:08:07;6.00;99.90
19847;DHT22;10084;50.518;8.588;2023-01-10T04:10:33;6.00;99.90
19847;DHT22;10084;50.518;8.588;2023-01-10T04:12:59;6.10;99.90
19847;DHT22;10084;50.518;8.588;2023-01-10T04:15:26;6.20;99.90
19847;DHT22;10084;50.518;8.588;2023-01-10T04:17:51;6.20;99.90
19847;DHT22;10084;50.518;8.588;2023-01-10T04:20:17;6.30;99.90
19847;DHT22;10084;50.518;8.588;2023-01-10T04:22:46;6.30;99.90
19847;DHT22;10084;50.518;8.588;2023-01-10T04:25:14;6.40;99.90
19847;DHT22;10084;50.518;8.588;2023-01-10T04:27:40;6.40;99.90
19847;DHT22;10084;50.518;8.588;2023-01-10T04:30:07;6.40;99.90
19847;DHT22;10084;50.518;8.588;2023-01-10T04:32:33;6.40;99.80
19847;DHT22;10084;50.518;8.588;2023-01-10T04:34:58;6.50;99.90
19847;DHT22;10084;50.518;8.588;2023-01-10T04:37:24;6.50;99.90
19847;DHT22;10084;50.518;8.588;2023-01-10T04:39:50;6.50;99.90
19847;DHT22;10084;50.518;8.588;2023-01-10T04:42:16;6.60;99.90
19847;DHT22;10084;50.518;8.588;2023-01-10T04:44:42;6.60;99.90
19847;DHT22;10084;50.518;8.588;2023-01-10T04:47:07;6.60;99.90
19847;DHT22;10084;50.518;8.588;2023-01-10T04:49:33;6.60;99.90
19847;DHT22;10084;50.518;8.588;2023-01-10T04:51:59;6.60;99.90
19847;DHT22;10084;50.518;8.588;2023-01-10T04:54:25;6.60;99.90
19847;DHT22;10084;50.518;8.588;2023-01-10T04:56:51;6.60;99.90
19847;DHT22;10084;50.518;8.588;2023-01-10T04:59:16;6.70;99.90
19847;DHT22;10084;50.518;8.588;2023-01-10T05:01:42;6.70;99.90
19847;DHT22;10084;50.518;8.588;2023-01-10T05:04:08;6.70;99.90
19847;DHT22;10084;50.518;8.588;2023-01-10T05:06:34;6.70;99.90
19847;DHT22;10084;50.518;8.588;2023-01-10T05:09:00;6.70;99.90
19847;DHT22;10084;50.518;8.588;2023-01-10T05:11:25;6.70;99.90
19847;DHT22;10084;50.518;8.588;2023-01-10T05:13:51;6.70;99.80
19847;DHT22;10084;50.518;8.588;2023-01-10T05:16:17;6.70;99.80
19847;DHT22;10084;50.518;8.588;2023-01-10T05:18:42;6.70;99.80
19847;DHT22;10084;50.518;8.588;2023-01-10T05:21:11;6.70;99.90
19847;DHT22;10084;50.518;8.588;2023-01-10T05:23:38;6.70;99.90
19847;DHT22;10084;50.518;8.588;2023-01-10T05:26:09;6.70;99.90
19847;DHT22;10084;50.518;8.588;2023-01-10T05:28:36;6.70;99.90
19847;DHT22;10084;50.518;8.588;2023-01-10T05:31:01;6.60;99.90
19847;DHT22;10084;50.518;8.588;2023-01-10T05:33:27;6.60;99.90
19847;DHT22;10084;50.518;8.588;2023-01-10T05:35:53;6.60;99.90
19847;DHT22;10084;50.518;8.588;2023-01-10T05:38:19;6.60;99.90
19847;DHT22;10084;50.518;8.588;2023-01-10T05:43:13;6.60;99.90
19847;DHT22;10084;50.518;8.588;2023-01-10T05:50:32;6.60;99.20
19847;DHT22;10084;50.518;8.588;2023-01-10T05:52:59;6.60;98.20
19847;DHT22;10084;50.518;8.588;2023-01-10T05:55:28;6.60;98.20
19847;DHT22;10084;50.518;8.588;2023-01-10T05:57:54;6.60;98.20
19847;DHT22;10084;50.518;8.588;2023-01-10T06:00:20;6.70;98.30
19847;DHT22;10084;50.518;8.588;2023-01-10T06:02:46;6.70;98.40
19847;DHT22;10084;50.518;8.588;2023-01-10T06:05:12;6.70;98.50
19847;DHT22;10084;50.518;8.588;2023-01-10T06:07:37;6.70;98.50
19847;DHT22;10084;50.518;8.588;2023-01-10T06:10:03;6.70;98.60
19847;DHT22;10084;50.518;8.588;2023-01-10T06:12:29;6.70;98.60
19847;DHT22;10084;50.518;8.588;2023-01-10T06:14:55;6.70;98.70
19847;DHT22;10084;50.518;8.588;2023-01-10T06:17:20;6.70;98.80
19847;DHT22;10084;50.518;8.588;2023-01-10T06:19:46;6.80;99.00
19847;DHT22;10084;50.518;8.588;2023-01-10T06:22:12;6.80;99.20
19847;DHT22;10084;50.518;8.588;2023-01-10T06:24:37;6.80;99.90
19847;DHT22;10084;50.518;8.588;2023-01-10T06:27:03;6.80;98.00
19847;DHT22;10084;50.518;8.588;2023-01-10T06:29:29;6.80;98.10
19847;DHT22;10084;50.518;8.588;2023-01-10T06:31:55;6.80;98.20
19847;DHT22;10084;50.518;8.588;2023-01-10T06:34:20;6.80;98.30
19847;DHT22;10084;50.518;8.588;2023-01-10T06:36:46;6.80;98.40
19847;DHT22;10084;50.518;8.588;2023-01-10T06:39:12;6.90;98.50
19847;DHT22;10084;50.518;8.588;2023-01-10T06:41:37;6.90;98.50
19847;DHT22;10084;50.518;8.588;2023-01-10T06:44:03;6.90;98.70
19847;DHT22;10084;50.518;8.588;2023-01-10T06:46:29;6.90;98.70
19847;DHT22;10084;50.518;8.588;2023-01-10T06:48:54;6.90;98.80
19847;DHT22;10084;50.518;8.588;2023-01-10T06:51:20;6.90;98.90
19847;DHT22;10084;50.518;8.588;2023-01-10T06:53:46;7.00;99.10
19847;DHT22;10084;50.518;8.588;2023-01-10T06:56:11;6.90;99.20
19847;DHT22;10084;50.518;8.588;2023-01-10T06:58:37;6.90;99.60
19847;DHT22;10084;50.518;8.588;2023-01-10T07:01:14;7.20;98.20
19847;DHT22;10084;50.518;8.588;2023-01-10T07:03:40;6.90;97.40
19847;DHT22;10084;50.518;8.588;2023-01-10T07:06:07;6.90;97.50
19847;DHT22;10084;50.518;8.588;2023-01-10T07:08:40;7.00;97.50
19847;DHT22;10084;50.518;8.588;2023-01-10T07:11:07;7.00;97.50
19847;DHT22;10084;50.518;8.588;2023-01-10T07:13:33;7.00;97.40
19847;DHT22;10084;50.518;8.588;2023-01-10T07:16:02;7.00;97.30
19847;DHT22;10084;50.518;8.588;2023-01-10T07:18:28;7.00;97.30
19847;DHT22;10084;50.518;8.588;2023-01-10T07:20:54;6.90;97.40
19847;DHT22;10084;50.518;8.588;2023-01-10T07:23:20;7.00;97.40
19847;DHT22;10084;50.518;8.588;2023-01-10T07:25:45;7.00;97.50
19847;DHT22;10084;50.518;8.588;2023-01-10T07:28:11;6.90;97.50
19847;DHT22;10084;50.518;8.588;2023-01-10T07:30:37;6.90;97.50
19847;DHT22;10084;50.518;8.588;2023-01-10T07:33:02;7.00;97.50
19847;DHT22;10084;50.518;8.588;2023-01-10T07:35:28;7.00;97.50
19847;DHT22;10084;50.518;8.588;2023-01-10T07:37:57;6.90;97.40
19847;DHT22;10084;50.518;8.588;2023-01-10T07:40:24;6.90;97.50
19847;DHT22;10084;50.518;8.588;2023-01-10T07:42:55;6.90;97.50
19847;DHT22;10084;50.518;8.588;2023-01-10T07:45:21;6.90;97.50
19847;DHT22;10084;50.518;8.588;2023-01-10T07:47:47;6.80;97.50
19847;DHT22;10084;50.518;8.588;2023-01-10T07:50:12;6.80;97.50
19847;DHT22;10084;50.518;8.588;2023-01-10T07:52:38;6.80;97.60
19847;DHT22;10084;50.518;8.588;2023-01-10T07:55:04;6.80;97.60
19847;DHT22;10084;50.518;8.588;2023-01-10T07:57:30;6.80;97.70
19847;DHT22;10084;50.518;8.588;2023-01-10T07:59:56;6.90;97.80
19847;DHT22;10084;50.518;8.588;2023-01-10T08:02:21;7.00;97.80
19847;DHT22;10084;50.518;8.588;2023-01-10T08:04:47;7.00;97.70
19847;DHT22;10084;50.518;8.588;2023-01-10T08:07:13;7.00;97.70
19847;DHT22;10084;50.518;8.588;2023-01-10T08:09:38;7.10;97.80
19847;DHT22;10084;50.518;8.588;2023-01-10T08:12:04;7.10;97.80
19847;DHT22;10084;50.518;8.588;2023-01-10T08:14:30;7.10;97.70
19847;DHT22;10084;50.518;8.588;2023-01-10T08:16:55;7.10;97.70
19847;DHT22;10084;50.518;8.588;2023-01-10T08:19:21;7.20;97.80
19847;DHT22;10084;50.518;8.588;2023-01-10T08:21:47;7.20;98.00
19847;DHT22;10084;50.518;8.588;2023-01-10T08:24:12;7.20;98.40
19847;DHT22;10084;50.518;8.588;2023-01-10T08:29:04;8.40;98.90
19847;DHT22;10084;50.518;8.588;2023-01-10T08:31:30;7.60;99.20
19847;DHT22;10084;50.518;8.588;2023-01-10T08:33:56;7.70;99.50
19847;DHT22;10084;50.518;8.588;2023-01-10T08:36:22;7.80;99.90
19847;DHT22;10084;50.518;8.588;2023-01-10T08:38:48;7.90;98.80
19847;DHT22;10084;50.518;8.588;2023-01-10T08:43:42;8.00;99.20
19847;DHT22;10084;50.518;8.588;2023-01-10T08:46:07;8.30;99.50
19847;DHT22;10084;50.518;8.588;2023-01-10T08:48:33;8.70;99.90
19847;DHT22;10084;50.518;8.588;2023-01-10T08:51:07;9.20;99.90
19847;DHT22;10084;50.518;8.588;2023-01-10T08:53:33;9.70;99.90
19847;DHT22;10084;50.518;8.588;2023-01-10T08:55:59;10.10;98.30
19847;DHT22;10084;50.518;8.588;2023-01-10T08:58:24;10.50;98.10
19847;DHT22;10084;50.518;8.588;2023-01-10T09:00:50;10.90;98.20
19847;DHT22;10084;50.518;8.588;2023-01-10T09:03:16;11.20;97.90
19847;DHT22;10084;50.518;8.588;2023-01-10T09:05:41;11.30;97.10
19847;DHT22;10084;50.518;8.588;2023-01-10T09:08:08;11.20;96.80
19847;DHT22;10084;50.518;8.588;2023-01-10T09:10:34;11.10;96.80
19847;DHT22;10084;50.518;8.588;2023-01-10T09:13:00;11.00;96.70
19847;DHT22;10084;50.518;8.588;2023-01-10T09:15:29;10.90;96.60
19847;DHT22;10084;50.518;8.588;2023-01-10T09:17:57;10.70;96.60
19847;DHT22;10084;50.518;8.588;2023-01-10T09:20:24;10.70;96.90
19847;DHT22;10084;50.518;8.588;2023-01-10T09:22:51;10.60;97.10
19847;DHT22;10084;50.518;8.588;2023-01-10T09:25:16;10.70;97.60
19847;DHT22;10084;50.518;8.588;2023-01-10T09:27:42;11.00;98.70
19847;DHT22;10084;50.518;8.588;2023-01-10T09:30:08;11.40;98.90
19847;DHT22;10084;50.518;8.588;2023-01-10T09:32:34;11.90;98.20
19847;DHT22;10084;50.518;8.588;2023-01-10T09:35:00;12.00;97.10
19847;DHT22;10084;50.518;8.588;2023-01-10T09:37:25;11.90;96.60
19847;DHT22;10084;50.518;8.588;2023-01-10T09:39:51;11.70;96.30
19847;DHT22;10084;50.518;8.588;2023-01-10T09:42:38;11.50;96.20
19847;DHT22;10084;50.518;8.588;2023-01-10T09:45:11;11.20;96.50
19847;DHT22;10084;50.518;8.588;2023-01-10T09:48:00;10.90;97.00
19847;DHT22;10084;50.518;8.588;2023-01-10T09:50:51;10.60;97.30
19847;DHT22;10084;50.518;8.588;2023-01-10T09:53:22;10.40;97.60
19847;DHT22;10084;50.518;8.588;2023-01-10T09:55:54;10.20;95.60
19847;DHT22;10084;50.518;8.588;2023-01-10T09:58:25;10.10;95.70
19847;DHT22;10084;50.518;8.588;2023-01-10T10:01:01;10.00;95.80
19847;DHT22;10084;50.518;8.588;2023-01-10T10:03:57;9.90;95.90
19847;DHT22;10084;50.518;8.588;2023-01-10T10:06:25;9.80;96.00
19847;DHT22;10084;50.518;8.588;2023-01-10T10:08:51;9.80;96.10
19847;DHT22;10084;50.518;8.588;2023-01-10T10:16:54;9.70;96.60
19847;DHT22;10084;50.518;8.588;2023-01-10T10:19:45;9.70;97.90
19847;DHT22;10084;50.518;8.588;2023-01-10T10:25:13;9.60;95.40
19847;DHT22;10084;50.518;8.588;2023-01-10T10:28:43;9.60;95.40
19847;DHT22;10084;50.518;8.588;2023-01-10T10:30:51;9.60;95.50
19847;DHT22;10084;50.518;8.588;2023-01-10T10:33:27;9.60;95.60
19847;DHT22;10084;50.518;8.588;2023-01-10T10:36:01;9.70;95.60
19847;DHT22;10084;50.518;8.588;2023-01-10T10:38:39;9.70;95.50
19847;DHT22;10084;50.518;8.588;2023-01-10T10:41:36;9.70;95.50
19847;DHT22;10084;50.518;8.588;2023-01-10T10:44:17;9.70;95.50
19847;DHT22;10084;50.518;8.588;2023-01-10T10:46:43;9.70;95.50
19847;DHT22;10084;50.518;8.588;2023-01-10T10:51:52;9.60;95.40
19847;DHT22;10084;50.518;8.588;2023-01-10T10:54:18;9.60;95.40
19847;DHT22;10084;50.518;8.588;2023-01-10T10:56:44;9.60;95.40
19847;DHT22;10084;50.518;8.588;2023-01-10T10:59:16;9.50;95.40
19847;DHT22;10084;50.518;8.588;2023-01-10T11:01:44;9.50;95.60
19847;DHT22;10084;50.518;8.588;2023-01-10T11:04:16;9.50;95.60
19847;DHT22;10084;50.518;8.588;2023-01-10T11:06:43;9.50;95.60
19847;DHT22;10084;50.518;8.588;2023-01-10T11:09:15;9.60;95.80
19847;DHT22;10084;50.518;8.588;2023-01-10T11:11:45;9.60;96.10
19847;DHT22;10084;50.518;8.588;2023-01-10T11:14:14;9.60;96.40
19847;DHT22;10084;50.518;8.588;2023-01-10T11:17:20;10.10;97.60
19847;DHT22;10084;50.518;8.588;2023-01-10T11:22:24;10.30;99.50
19847;DHT22;10084;50.518;8.588;2023-01-10T11:25:02;10.70;95.60
19847;DHT22;10084;50.518;8.588;2023-01-10T11:27:30;10.80;94.80
19847;DHT22;10084;50.518;8.588;2023-01-10T11:29:58;10.90;94.60
19847;DHT22;10084;50.518;8.588;2023-01-10T11:32:51;11.10;95.10
19847;DHT22;10084;50.518;8.588;2023-01-10T11:35:33;11.70;96.40
19847;DHT22;10084;50.518;8.588;2023-01-10T11:38:05;12.40;96.20
19847;DHT22;10084;50.518;8.588;2023-01-10T11:40:35;12.90;95.80
19847;DHT22;10084;50.518;8.588;2023-01-10T11:43:25;13.30;95.30
19847;DHT22;10084;50.518;8.588;2023-01-10T11:45:54;13.50;94.90
19847;DHT22;10084;50.518;8.588;2023-01-10T11:48:23;13.60;94.80
19847;DHT22;10084;50.518;8.588;2023-01-10T11:50:51;13.70;94.70
19847;DHT22;10084;50.518;8.588;2023-01-10T11:53:38;14.00;94.70
19847;DHT22;10084;50.518;8.588;2023-01-10T11:56:05;14.20;94.60
19847;DHT22;10084;50.518;8.588;2023-01-10T11:58:33;14.20;94.40
19847;DHT22;10084;50.518;8.588;2023-01-10T12:00:59;14.20;94.10
19847;DHT22;10084;50.518;8.588;2023-01-10T12:03:31;14.10;93.80
19847;DHT22;10084;50.518;8.588;2023-01-10T12:06:13;14.00;93.80
19847;DHT22;10084;50.518;8.588;2023-01-10T12:08:40;13.80;93.70
19847;DHT22;10084;50.518;8.588;2023-01-10T12:11:30;13.70;93.80
19847;DHT22;10084;50.518;8.588;2023-01-10T12:13:58;13.60;93.90
19847;DHT22;10084;50.518;8.588;2023-01-10T12:16:29;13.70;94.40
19847;DHT22;10084;50.518;8.588;2023-01-10T12:18:58;13.80;94.80
19847;DHT22;10084;50.518;8.588;2023-01-10T12:21:38;13.90;93.30
19847;DHT22;10084;50.518;8.588;2023-01-10T12:24:29;13.80;92.70
19847;DHT22;10084;50.518;8.588;2023-01-10T12:26:58;13.70;92.40
19847;DHT22;10084;50.518;8.588;2023-01-10T12:29:33;13.40;92.40
19847;DHT22;10084;50.518;8.588;2023-01-10T12:32:02;13.00;92.40
19847;DHT22;10084;50.518;8.588;2023-01-10T12:34:48;12.70;92.40
19847;DHT22;10084;50.518;8.588;2023-01-10T12:40:29;12.20;92.60
19847;DHT22;10084;50.518;8.588;2023-01-10T12:43:06;11.90;92.80
19847;DHT22;10084;50.518;8.588;2023-01-10T12:46:21;11.80;93.00
19847;DHT22;10084;50.518;8.588;2023-01-10T12:48:54;11.70;92.90
19847;DHT22;10084;50.518;8.588;2023-01-10T12:51:27;11.60;92.90
19847;DHT22;10084;50.518;8.588;2023-01-10T12:54:00;11.40;92.90
19847;DHT22;10084;50.518;8.588;2023-01-10T12:56:28;11.40;92.90
19847;DHT22;10084;50.518;8.588;2023-01-10T12:58:57;11.30;92.90
19847;DHT22;10084;50.518;8.588;2023-01-10T13:01:30;11.20;92.90
19847;DHT22;10084;50.518;8.588;2023-01-10T13:04:06;11.20;92.90
19847;DHT22;10084;50.518;8.588;2023-01-10T13:06:36;11.10;93.00
19847;DHT22;10084;50.518;8.588;2023-01-10T13:09:26;11.00;93.00
19847;DHT22;10084;50.518;8.588;2023-01-10T13:14:31;10.80;93.10
19847;DHT22;10084;50.518;8.588;2023-01-10T13:17:15;10.70;93.10
19847;DHT22;10084;50.518;8.588;2023-01-10T13:22:53;10.50;93.20
19847;DHT22;10084;50.518;8.588;2023-01-10T13:25:33;10.40;93.40
19847;DHT22;10084;50.518;8.588;2023-01-10T13:28:27;10.30;93.70
19847;DHT22;10084;50.518;8.588;2023-01-10T13:31:23;10.20;93.40
19847;DHT22;10084;50.518;8.588;2023-01-10T13:33:56;10.10;92.50
19847;DHT22;10084;50.518;8.588;2023-01-10T13:36:30;10.00;92.80
19847;DHT22;10084;50.518;8.588;2023-01-10T13:39:02;10.00;92.70
19847;DHT22;10084;50.518;8.588;2023-01-10T13:52:52;9.80;93.40
19847;DHT22;10084;50.518;8.588;2023-01-10T13:55:27;9.70;93.50
19847;DHT22;10084;50.518;8.588;2023-01-10T13:57:56;9.70;93.60
19847;DHT22;10084;50.518;8.588;2023-01-10T14:03:45;9.10;94.40
19847;DHT22;10084;50.518;8.588;2023-01-10T14:16:54;9.30;94.10
19847;DHT22;10084;50.518;8.588;2023-01-10T14:21:54;9.20;94.00
19847;DHT22;10084;50.518;8.588;2023-01-10T14:24:34;9.20;95.00
19847;DHT22;10084;50.518;8.588;2023-01-10T14:27:02;9.20;93.90
19847;DHT22;10084;50.518;8.588;2023-01-10T14:29:31;9.10;94.20
19847;DHT22;10084;50.518;8.588;2023-01-10T14:31:59;9.10;95.60
19847;DHT22;10084;50.518;8.588;2023-01-10T14:34:27;9.10;94.60
19847;DHT22;10084;50.518;8.588;2023-01-10T14:37:00;9.00;93.70
19847;DHT22;10084;50.518;8.588;2023-01-10T14:39:27;9.00;93.70
19847;DHT22;10084;50.518;8.588;2023-01-10T14:42:06;8.90;93.70
19847;DHT22;10084;50.518;8.588;2023-01-10T14:44:47;8.90;93.70
19847;DHT22;10084;50.518;8.588;2023-01-10T14:47:27;8.80;94.10
19847;DHT22;10084;50.518;8.588;2023-01-10T14:52:26;8.70;94.40
19847;DHT22;10084;50.518;8.588;2023-01-10T14:55:13;8.70;94.70
19847;DHT22;10084;50.518;8.588;2023-01-10T14:57:55;8.60;95.40
19847;DHT22;10084;50.518;8.588;2023-01-10T15:00:32;8.60;94.80
19847;DHT22;10084;50.518;8.588;2023-01-10T15:03:02;8.50;93.20
19847;DHT22;10084;50.518;8.588;2023-01-10T15:05:32;8.50;93.20
19847;DHT22;10084;50.518;8.588;2023-01-10T15:11:03;8.40;93.10
19847;DHT22;10084;50.518;8.588;2023-01-10T15:13:35;8.30;93.10
19847;DHT22;10084;50.518;8.588;2023-01-10T15:16:02;8.30;93.10
19847;DHT22;10084;50.518;8.588;2023-01-10T15:18:36;8.30;93.20
19847;DHT22;10084;50.518;8.588;2023-01-10T15:21:03;8.20;93.20
19847;DHT22;10084;50.518;8.588;2023-01-10T15:23:37;8.20;93.30
19847;DHT22;10084;50.518;8.588;2023-01-10T15:26:08;8.20;93.50
19847;DHT22;10084;50.518;8.588;2023-01-10T15:28:36;8.10;93.70
19847;DHT22;10084;50.518;8.588;2023-01-10T15:31:03;8.10;94.00
19847;DHT22;10084;50.518;8.588;2023-01-10T15:36:13;7.50;94.90
19847;DHT22;10084;50.518;8.588;2023-01-10T15:38:43;8.00;95.00
19847;DHT22;10084;50.518;8.588;2023-01-10T15:41:11;7.90;95.00
19847;DHT22;10084;50.518;8.588;2023-01-10T15:46:17;7.80;94.90
19847;DHT22;10084;50.518;8.588;2023-01-10T15:48:53;7.80;95.70
19847;DHT22;10084;50.518;8.588;2023-01-10T15:51:33;7.70;95.40
19847;DHT22;10084;50.518;8.588;2023-01-10T15:56:47;7.70;95.20
19847;DHT22;10084;50.518;8.588;2023-01-10T15:59:29;7.70;95.10
19847;DHT22;10084;50.518;8.588;2023-01-10T16:04:37;7.70;94.40
19847;DHT22;10084;50.518;8.588;2023-01-10T16:07:07;7.70;94.60
19847;DHT22;10084;50.518;8.588;2023-01-10T16:09:36;7.70;94.90
19847;DHT22;10084;50.518;8.588;2023-01-10T16:12:04;7.70;94.80
19847;DHT22;10084;50.518;8.588;2023-01-10T16:14:49;7.70;94.70
19847;DHT22;10084;50.518;8.588;2023-01-10T16:17:14;7.60;95.60
19847;DHT22;10084;50.518;8.588;2023-01-10T16:19:40;7.60;95.40
19847;DHT22;10084;50.518;8.588;2023-01-10T16:22:06;7.60;93.60
19847;DHT22;10084;50.518;8.588;2023-01-10T16:24:33;7.60;93.60
19847;DHT22;10084;50.518;8.588;2023-01-10T16:27:02;7.60;93.60
19847;DHT22;10084;50.518;8.588;2023-01-10T16:29:30;7.60;93.70
19847;DHT22;10084;50.518;8.588;2023-01-10T16:31:56;7.60;93.80
19847;DHT22;10084;50.518;8.588;2023-01-10T16:34:21;7.60;93.90
19847;DHT22;10084;50.518;8.588;2023-01-10T16:36:48;7.60;94.00
19847;DHT22;10084;50.518;8.588;2023-01-10T16:39:17;7.60;94.10
19847;DHT22;10084;50.518;8.588;2023-01-10T16:41:43;7.50;94.20
19847;DHT22;10084;50.518;8.588;2023-01-10T16:44:28;7.50;94.30
19847;DHT22;10084;50.518;8.588;2023-01-10T16:46:55;7.50;94.50
19847;DHT22;10084;50.518;8.588;2023-01-10T16:49:21;7.40;94.70
19847;DHT22;10084;50.518;8.588;2023-01-10T16:51:47;7.50;95.00
19847;DHT22;10084;50.518;8.588;2023-01-10T16:54:18;7.50;94.90
19847;DHT22;10084;50.518;8.588;2023-01-10T16:56:45;7.50;95.00
19847;DHT22;10084;50.518;8.588;2023-01-10T16:59:12;7.50;95.00
19847;DHT22;10084;50.518;8.588;2023-01-10T17:01:50;7.40;95.00
19847;DHT22;10084;50.518;8.588;2023-01-10T17:04:22;7.40;95.10
19847;DHT22;10084;50.518;8.588;2023-01-10T17:06:48;7.40;95.00
19847;DHT22;10084;50.518;8.588;2023-01-10T17:09:25;7.40;95.10
19847;DHT22;10084;50.518;8.588;2023-01-10T17:11:56;7.40;95.20
19847;DHT22;10084;50.518;8.588;2023-01-10T17:14:31;7.30;95.20
19847;DHT22;10084;50.518;8.588;2023-01-10T17:16:57;7.40;95.20
19847;DHT22;10084;50.518;8.588;2023-01-10T17:19:23;7.30;95.20
19847;DHT22;10084;50.518;8.588;2023-01-10T17:21:49;7.30;95.30
19847;DHT22;10084;50.518;8.588;2023-01-10T17:24:14;7.30;95.30
19847;DHT22;10084;50.518;8.588;2023-01-10T17:26:41;7.30;95.50
19847;DHT22;10084;50.518;8.588;2023-01-10T17:29:07;7.30;95.50
19847;DHT22;10084;50.518;8.588;2023-01-10T17:31:32;7.30;95.60
19847;DHT22;10084;50.518;8.588;2023-01-10T17:33:58;7.30;95.60
19847;DHT22;10084;50.518;8.588;2023-01-10T17:36:24;7.20;95.70
19847;DHT22;10084;50.518;8.588;2023-01-10T17:38:55;7.20;95.80
19847;DHT22;10084;50.518;8.588;2023-01-10T17:41:21;7.20;96.00
19847;DHT22;10084;50.518;8.588;2023-01-10T17:43:47;7.20;96.10
19847;DHT22;10084;50.518;8.588;2023-01-10T17:46:13;7.20;96.20
19847;DHT22;10084;50.518;8.588;2023-01-10T17:48:41;7.20;96.50
19847;DHT22;10084;50.518;8.588;2023-01-10T17:51:07;7.10;96.80
19847;DHT22;10084;50.518;8.588;2023-01-10T17:53:33;7.20;94.80